TimeEST,TemperatureF,Dew PointF,Humidity,Sea Level PressureIn,VisibilityMPH,Wind Direction,Wind SpeedMPH,Gust SpeedMPH,PrecipitationIn,Events,Conditions,WindDirDegrees,DateUTC
12:15 AM,24.1,16.5,73,30.67,10.0,Calm,Calm,-,N/A,,Clear,0,2012-11-18 05:15:00
12:35 AM,23.5,16.5,75,30.67,10.0,Calm,Calm,-,N/A,,Clear,0,2012-11-18 05:35:00
12:55 AM,24.3,15.8,70,30.67,10.0,West,3.5,-,N/A,,Clear,280,2012-11-18 05:55:00
1:15 AM,24.6,15.6,69,30.67,10.0,Calm,Calm,-,N/A,,Clear,0,2012-11-18 06:15:00
1:35 AM,23.0,14.9,71,30.67,10.0,Calm,Calm,-,N/A,,Clear,0,2012-11-18 06:35:00
1:55 AM,21.2,15.8,80,30.68,10.0,Calm,Calm,-,N/A,,Clear,0,2012-11-18 06:55:00
2:15 AM,22.1,15.8,77,30.68,10.0,Calm,Calm,-,N/A,,Clear,0,2012-11-18 07:15:00
2:35 AM,21.2,15.8,80,30.68,10.0,Calm,Calm,-,N/A,,Clear,0,2012-11-18 07:35:00
2:55 AM,21.4,15.4,78,30.67,10.0,Calm,Calm,-,N/A,,Clear,0,2012-11-18 07:55:00
3:15 AM,20.1,14.7,80,30.67,10.0,Calm,Calm,-,N/A,,Clear,0,2012-11-18 08:15:00
3:55 AM,20.8,15.3,79,30.67,10.0,Calm,Calm,-,N/A,,Clear,0,2012-11-18 08:55:00
4:15 AM,19.9,15.4,83,30.67,10.0,Calm,Calm,-,N/A,,Clear,0,2012-11-18 09:15:00
4:35 AM,20.8,14.9,78,30.67,10.0,Calm,Calm,-,N/A,,Clear,0,2012-11-18 09:35:00
4:55 AM,19.2,14.2,81,30.66,10.0,Calm,Calm,-,N/A,,Clear,0,2012-11-18 09:55:00
5:15 AM,18.7,14.4,83,30.67,10.0,Calm,Calm,-,N/A,,Clear,0,2012-11-18 10:15:00
5:35 AM,18.0,14.4,86,30.67,10.0,Calm,Calm,-,N/A,,Clear,0,2012-11-18 10:35:00
5:55 AM,18.0,14.5,86,30.67,10.0,Calm,Calm,-,N/A,,Clear,0,2012-11-18 10:55:00
6:15 AM,18.0,14.2,85,30.68,10.0,Calm,Calm,-,N/A,,Clear,0,2012-11-18 11:15:00
6:35 AM,18.5,14.7,85,30.68,10.0,Calm,Calm,-,N/A,,Clear,0,2012-11-18 11:35:00
6:55 AM,19.4,14.9,83,30.68,10.0,Calm,Calm,-,N/A,,Clear,0,2012-11-18 11:55:00
7:15 AM,18.5,14.7,85,30.68,10.0,Calm,Calm,-,N/A,,Clear,0,2012-11-18 12:15:00
7:35 AM,18.5,14.7,85,30.69,10.0,Calm,Calm,-,N/A,,Clear,0,2012-11-18 12:35:00
7:55 AM,18.9,14.9,85,30.70,10.0,Calm,Calm,-,N/A,,Clear,0,2012-11-18 12:55:00
8:15 AM,20.3,15.6,82,30.70,10.0,Calm,Calm,-,N/A,,Clear,0,2012-11-18 13:15:00
8:35 AM,21.4,15.8,79,30.70,10.0,Calm,Calm,-,N/A,,Clear,0,2012-11-18 13:35:00
8:55 AM,24.3,17.2,75,30.70,10.0,Calm,Calm,-,N/A,,Clear,0,2012-11-18 13:55:00
9:15 AM,26.6,18.5,71,30.70,10.0,Calm,Calm,-,N/A,,Clear,0,2012-11-18 14:15:00
9:35 AM,26.6,18.3,71,30.70,10.0,Calm,Calm,-,N/A,,Clear,0,2012-11-18 14:35:00
9:55 AM,28.8,18.0,64,30.71,10.0,Calm,Calm,-,N/A,,Clear,0,2012-11-18 14:55:00
10:15 AM,30.2,17.1,58,30.71,10.0,Calm,Calm,-,N/A,,Clear,0,2012-11-18 15:15:00
10:35 AM,32.4,16.5,52,30.70,10.0,Calm,Calm,-,N/A,,Clear,0,2012-11-18 15:35:00
10:55 AM,34.0,15.8,47,30.69,10.0,ESE,4.6,-,N/A,,Clear,120,2012-11-18 15:55:00
11:15 AM,35.2,14.2,42,30.68,10.0,SSE,4.6,-,N/A,,Clear,150,2012-11-18 16:15:00
11:35 AM,35.8,14.4,42,30.67,10.0,ESE,6.9,-,N/A,,Clear,120,2012-11-18 16:35:00
11:55 AM,37.6,15.3,40,30.67,10.0,SE,4.6,-,N/A,,Clear,140,2012-11-18 16:55:00
12:15 PM,39.0,16.5,40,30.66,10.0,ESE,6.9,-,N/A,,Clear,120,2012-11-18 17:15:00
12:35 PM,39.4,19.4,45,30.65,10.0,SE,4.6,-,N/A,,Clear,140,2012-11-18 17:35:00
12:55 PM,40.5,19.2,43,30.64,10.0,SE,5.8,-,N/A,,Clear,140,2012-11-18 17:55:00
1:15 PM,41.0,20.7,44,30.64,10.0,South,3.5,-,N/A,,Clear,170,2012-11-18 18:15:00
1:35 PM,41.2,21.7,46,30.63,10.0,SE,8.1,-,N/A,,Clear,140,2012-11-18 18:35:00
1:55 PM,41.2,21.4,45,30.63,10.0,SSE,6.9,-,N/A,,Clear,150,2012-11-18 18:55:00
2:15 PM,41.9,21.2,44,30.62,10.0,SSE,5.8,-,N/A,,Clear,160,2012-11-18 19:15:00
2:55 PM,41.7,20.7,43,30.62,10.0,SE,3.5,-,N/A,,Clear,140,2012-11-18 19:55:00
3:15 PM,42.1,20.1,42,30.62,10.0,South,3.5,-,N/A,,Clear,170,2012-11-18 20:15:00
3:35 PM,41.0,20.3,44,30.62,10.0,SSW,3.5,-,N/A,,Clear,200,2012-11-18 20:35:00
3:55 PM,40.3,20.5,45,30.62,10.0,SSW,3.5,-,N/A,,Clear,210,2012-11-18 20:55:00
4:15 PM,39.6,20.3,46,30.62,10.0,Calm,Calm,-,N/A,,Clear,0,2012-11-18 21:15:00
4:35 PM,39.4,20.3,46,30.62,10.0,South,3.5,-,N/A,,Clear,190,2012-11-18 21:35:00
4:55 PM,38.7,20.3,48,30.62,10.0,South,3.5,-,N/A,,Clear,190,2012-11-18 21:55:00
5:15 PM,38.5,21.0,50,30.63,10.0,Calm,Calm,-,N/A,,Clear,0,2012-11-18 22:15:00
5:55 PM,34.7,20.3,56,30.63,10.0,Calm,Calm,-,N/A,,Clear,0,2012-11-18 22:55:00
6:15 PM,35.1,21.2,57,30.63,10.0,Calm,Calm,-,N/A,,Clear,0,2012-11-18 23:15:00
6:35 PM,32.7,21.2,63,30.63,10.0,Calm,Calm,-,N/A,,Clear,0,2012-11-18 23:35:00
6:55 PM,33.3,21.6,62,30.63,10.0,Calm,Calm,-,N/A,,Clear,0,2012-11-18 23:55:00
7:15 PM,30.4,20.5,67,30.63,10.0,Calm,Calm,-,N/A,,Clear,0,2012-11-19 00:15:00
7:55 PM,28.4,20.8,73,30.63,10.0,Calm,Calm,-,N/A,,Clear,0,2012-11-19 00:55:00
8:15 PM,28.8,21.0,73,30.62,10.0,Calm,Calm,-,N/A,,Clear,0,2012-11-19 01:15:00
8:35 PM,29.8,21.0,70,30.62,10.0,Calm,Calm,-,N/A,,Clear,0,2012-11-19 01:35:00
8:55 PM,28.0,21.0,75,30.62,10.0,Calm,Calm,-,N/A,,Clear,0,2012-11-19 01:55:00
9:15 PM,28.2,21.2,75,30.61,10.0,Calm,Calm,-,N/A,,Clear,0,2012-11-19 02:15:00
9:35 PM,28.4,21.7,76,30.61,10.0,Calm,Calm,-,N/A,,Clear,0,2012-11-19 02:35:00
9:55 PM,27.5,21.2,77,30.61,10.0,Calm,Calm,-,N/A,,Clear,0,2012-11-19 02:55:00
10:15 PM,27.5,21.2,77,30.61,10.0,Calm,Calm,-,N/A,,Clear,0,2012-11-19 03:15:00
10:35 PM,26.6,21.2,80,30.61,10.0,Calm,Calm,-,N/A,,Clear,0,2012-11-19 03:35:00
10:55 PM,26.8,21.2,79,30.61,10.0,Calm,Calm,-,N/A,,Clear,0,2012-11-19 03:55:00
11:15 PM,26.4,21.2,81,30.61,10.0,Calm,Calm,-,N/A,,Clear,0,2012-11-19 04:15:00
11:35 PM,26.4,21.2,81,30.60,10.0,Calm,Calm,-,N/A,,Clear,0,2012-11-19 04:35:00
11:55 PM,25.9,21.0,82,30.60,10.0,Calm,Calm,-,N/A,,Clear,0,2012-11-19 04:55:00